Time;durP1;ratioP1;P1;durP2;ratioP2;P2;SDS_P1;SDS_P2;PMS_P1;PMS_P2;Temp;Humidity;BMP_temperature;BMP_pressure;BME280_temperature;BME280_humidity;BME280_pressure;Samples;Min_cycle;Max_cycle;Signal;HPM_P1;HPM_P2
2024/01/19 00:00:31;;;;;;;51.55;36.15;;;10.40;99.90;;;;;;5020439;28;20033;-78
2024/01/19 00:02:58;;;;;;;54.13;34.08;;;10.40;99.90;;;;;;5000577;28;20041;-83
2024/01/19 00:05:25;;;;;;;55.40;36.75;;;10.40;99.90;;;;;;5011588;28;20037;-78
2024/01/19 00:07:53;;;;;;;49.42;34.80;;;10.20;99.90;;;;;;5029105;28;20042;-80
2024/01/19 00:10:20;;;;;;;49.80;33.60;;;10.20;99.90;;;;;;5034433;28;20164;-83
2024/01/19 00:12:48;;;;;;;42.13;30.92;;;10.30;99.90;;;;;;5028892;28;20041;-77
2024/01/19 00:15:15;;;;;;;43.92;30.48;;;10.30;99.90;;;;;;5043527;28;20045;-80
2024/01/19 00:17:42;;;;;;;45.33;32.50;;;10.30;99.90;;;;;;5047617;28;20041;-79
2024/01/19 00:20:12;;;;;;;43.22;30.73;;;10.20;99.90;;;;;;5044172;28;20535;-78
2024/01/19 00:22:40;;;;;;;46.25;30.30;;;10.20;99.90;;;;;;5046967;28;20033;-79
2024/01/19 00:25:07;;;;;;;48.10;33.10;;;10.30;99.90;;;;;;5030327;28;20060;-79
2024/01/19 00:27:35;;;;;;;52.22;33.80;;;10.40;99.90;;;;;;5046243;28;20145;-78
2024/01/19 00:30:03;;;;;;;53.97;35.28;;;10.10;99.90;;;;;;5014653;28;20041;-76
2024/01/19 00:32:30;;;;;;;48.55;34.05;;;10.10;99.90;;;;;;5013252;28;20045;-77
2024/01/19 00:34:57;;;;;;;46.78;34.05;;;10.00;99.90;;;;;;5029673;28;20048;-82
2024/01/19 00:37:26;;;;;;;52.25;34.30;;;10.20;99.90;;;;;;5045350;28;20392;-79
2024/01/19 00:39:54;;;;;;;70.82;46.47;;;10.10;99.90;;;;;;5046229;28;20041;-77
2024/01/19 00:42:21;;;;;;;51.15;36.13;;;10.10;99.90;;;;;;5044979;28;20065;-81
2024/01/19 00:44:48;;;;;;;45.60;33.60;;;10.10;99.90;;;;;;5048426;28;20041;-85
2024/01/19 00:47:16;;;;;;;52.00;35.83;;;10.10;99.90;;;;;;5052959;28;20044;-86
2024/01/19 00:49:44;;;;;;;56.55;37.30;;;9.90;99.90;;;;;;5030761;28;20392;-82
2024/01/19 00:52:12;;;;;;;42.85;31.42;;;9.80;99.90;;;;;;5019380;28;20043;-81
2024/01/19 00:54:39;;;;;;;39.17;29.35;;;9.80;99.90;;;;;;5045230;28;20040;-80
2024/01/19 00:57:06;;;;;;;41.58;28.70;;;9.70;99.90;;;;;;5049160;28;20116;-85
2024/01/19 00:59:33;;;;;;;37.33;28.50;;;9.70;99.90;;;;;;5046358;28;20036;-87
2024/01/19 01:02:19;;;;;;;39.03;29.38;;;9.70;99.90;;;;;;5053481;28;20035;-88
2024/01/19 01:04:46;;;;;;;44.10;29.50;;;9.80;99.90;;;;;;5046968;28;20097;-84
2024/01/19 01:07:14;;;;;;;43.55;29.13;;;9.90;99.90;;;;;;5032371;28;20498;-85
2024/01/19 01:09:42;;;;;;;41.53;28.70;;;9.80;99.90;;;;;;5053061;28;20599;-86
2024/01/19 01:12:09;;;;;;;45.35;28.50;;;9.90;99.90;;;;;;5050177;28;20039;-84
2024/01/19 01:14:37;;;;;;;43.88;28.55;;;9.80;99.90;;;;;;5050642;28;20033;-82
2024/01/19 01:17:04;;;;;;;79.22;31.80;;;9.80;99.90;;;;;;5034891;28;20044;-81
2024/01/19 01:19:32;;;;;;;51.92;30.88;;;9.60;99.90;;;;;;5045090;28;20033;-82
2024/01/19 01:21:59;;;;;;;56.38;35.95;;;9.50;99.90;;;;;;5046218;28;20033;-82
2024/01/19 01:24:29;;;;;;;69.38;36.63;;;9.50;99.90;;;;;;5048411;28;20029;-82
2024/01/19 01:26:57;;;;;;;56.83;35.47;;;9.50;99.90;;;;;;5050746;28;20064;-81
2024/01/19 01:29:25;;;;;;;57.92;35.28;;;9.40;99.90;;;;;;5032104;28;20048;-81
2024/01/19 01:31:52;;;;;;;52.90;33.30;;;9.50;99.90;;;;;;5029988;28;20627;-81
2024/01/19 01:34:19;;;;;;;48.63;33.38;;;9.50;99.90;;;;;;5051980;28;20037;-80
2024/01/19 01:36:47;;;;;;;54.83;34.17;;;9.50;99.90;;;;;;5052230;28;20044;-80
2024/01/19 01:39:14;;;;;;;54.67;32.92;;;9.50;99.90;;;;;;5052636;28;20117;-81
2024/01/19 01:41:44;;;;;;;48.92;32.50;;;9.70;99.90;;;;;;5052199;28;20040;-82
2024/01/19 01:44:12;;;;;;;46.65;32.25;;;9.80;99.90;;;;;;5034840;28;20041;-80
2024/01/19 01:46:39;;;;;;;49.05;32.58;;;9.90;99.90;;;;;;5047886;28;20418;-81
2024/01/19 01:49:07;;;;;;;46.03;32.75;;;9.90;99.90;;;;;;5048330;28;20045;-81
2024/01/19 01:51:35;;;;;;;43.25;31.65;;;9.90;99.90;;;;;;5048046;28;20032;-82
2024/01/19 01:54:06;;;;;;;46.70;31.88;;;9.90;99.90;;;;;;5046650;28;20037;-80
2024/01/19 01:56:34;;;;;;;44.35;30.85;;;9.90;99.90;;;;;;5051689;28;20025;-79
2024/01/19 01:59:02;;;;;;;46.28;32.05;;;9.90;99.90;;;;;;5029143;28;20045;-79
2024/01/19 02:01:29;;;;;;;53.42;33.50;;;10.00;99.90;;;;;;5046009;28;20453;-81
2024/01/19 02:03:59;;;;;;;47.88;32.47;;;10.10;99.90;;;;;;5051211;28;20432;-82
2024/01/19 02:06:29;;;;;;;49.00;33.05;;;10.00;99.90;;;;;;5045382;28;20087;-80
2024/01/19 02:08:57;;;;;;;53.22;32.60;;;9.90;99.90;;;;;;5032913;28;20072;-80
2024/01/19 02:11:24;;;;;;;46.45;32.88;;;9.80;99.90;;;;;;5033722;28;20068;-85
2024/01/19 02:13:52;;;;;;;50.45;30.67;;;9.90;99.90;;;;;;5017314;28;20049;-80
2024/01/19 02:16:19;;;;;;;45.80;31.85;;;10.10;99.90;;;;;;5050619;28;20135;-82
2024/01/19 02:18:46;;;;;;;47.72;30.80;;;10.10;99.90;;;;;;5032677;28;20127;-81
2024/01/19 02:21:14;;;;;;;55.20;32.42;;;10.20;99.90;;;;;;5016846;28;20413;-82
2024/01/19 02:24:06;;;;;;;50.85;30.42;;;10.10;99.90;;;;;;5051194;28;20099;-82
2024/01/19 02:26:35;;;;;;;47.08;31.52;;;10.10;99.90;;;;;;5031885;28;20472;-83
2024/01/19 02:29:03;;;;;;;49.38;32.83;;;10.10;99.90;;;;;;5050065;28;20036;-85
2024/01/19 02:31:31;;;;;;;44.13;31.13;;;10.10;99.90;;;;;;5047382;28;20069;-84
2024/01/19 02:34:00;;;;;;;56.75;32.75;;;10.00;99.90;;;;;;5029224;28;20033;-83
2024/01/19 02:36:27;;;;;;;53.75;32.67;;;10.10;99.90;;;;;;5049363;28;20041;-82
2024/01/19 02:38:54;;;;;;;49.42;32.25;;;9.90;99.90;;;;;;5048329;28;20021;-82
2024/01/19 02:41:22;;;;;;;62.17;36.22;;;9.80;99.90;;;;;;5033954;28;20036;-81
2024/01/19 02:43:50;;;;;;;63.72;39.25;;;9.90;99.90;;;;;;5031281;28;20452;-82
2024/01/19 02:46:21;;;;;;;59.55;37.00;;;9.90;99.90;;;;;;5048860;28;20423;-83
2024/01/19 02:48:51;;;;;;;70.95;39.25;;;9.80;99.90;;;;;;5033586;28;20029;-81
2024/01/19 02:51:19;;;;;;;56.45;36.83;;;9.70;99.90;;;;;;5032220;28;20045;-84
2024/01/19 02:53:46;;;;;;;61.65;35.55;;;9.70;99.90;;;;;;5048698;28;20045;-82
2024/01/19 02:56:14;;;;;;;55.47;34.70;;;9.80;99.90;;;;;;5049138;28;20120;-81
2024/01/19 02:58:41;;;;;;;53.30;33.83;;;9.70;99.90;;;;;;5049564;28;20071;-82
2024/01/19 03:01:09;;;;;;;62.22;37.70;;;9.80;99.90;;;;;;5029163;28;20051;-82
2024/01/19 03:03:37;;;;;;;60.63;34.90;;;9.70;99.90;;;;;;5030199;28;20033;-82
2024/01/19 03:06:05;;;;;;;61.65;35.15;;;9.70;99.90;;;;;;5045118;28;20039;-82
2024/01/19 03:08:32;;;;;;;64.13;35.75;;;9.60;99.90;;;;;;5044579;28;20049;-80
2024/01/19 03:11:00;;;;;;;54.05;34.90;;;9.50;99.90;;;;;;5050032;28;20049;-81
2024/01/19 03:13:27;;;;;;;57.40;36.83;;;9.70;99.90;;;;;;5033159;28;20040;-81
2024/01/19 03:15:57;;;;;;;82.43;36.97;;;9.80;99.90;;;;;;5027953;28;20663;-80
2024/01/19 03:18:25;;;;;;;77.55;37.78;;;9.60;99.90;;;;;;5044686;28;20224;-81
2024/01/19 03:20:52;;;;;;;75.80;37.05;;;9.30;99.90;;;;;;5050700;28;20052;-81
2024/01/19 03:23:20;;;;;;;62.28;35.70;;;9.20;99.90;;;;;;5045836;28;20035;-80
2024/01/19 03:25:47;;;;;;;71.35;38.15;;;9.30;99.90;;;;;;5045926;28;20412;-82
2024/01/19 03:28:15;;;;;;;65.97;38.78;;;9.40;99.90;;;;;;5046831;28;20060;-83
2024/01/19 03:30:42;;;;;;;67.57;37.78;;;9.30;99.90;;;;;;5031546;28;20113;-83
2024/01/19 03:33:10;;;;;;;64.32;36.83;;;9.50;99.90;;;;;;5049890;28;20161;-83
2024/01/19 03:35:37;;;;;;;62.53;34.58;;;9.60;99.90;;;;;;5049264;28;20123;-84
2024/01/19 03:38:05;;;;;;;60.55;36.45;;;9.70;99.90;;;;;;5033247;28;20029;-79
2024/01/19 03:40:32;;;;;;;68.32;35.25;;;9.80;99.90;;;;;;5043558;28;20036;-83
2024/01/19 03:43:00;;;;;;;59.05;35.45;;;9.70;99.90;;;;;;5046331;28;20480;-81
2024/01/19 03:45:27;;;;;;;57.78;34.08;;;9.70;99.90;;;;;;5031578;28;20033;-81
2024/01/19 03:47:54;;;;;;;55.47;32.05;;;9.50;99.90;;;;;;5050521;28;20044;-78
2024/01/19 03:50:24;;;;;;;52.92;34.58;;;9.60;99.90;;;;;;5047341;28;20118;-79
2024/01/19 03:52:51;;;;;;;58.15;35.00;;;9.70;99.90;;;;;;5050520;28;20075;-78
2024/01/19 03:55:19;;;;;;;51.28;33.58;;;9.80;99.90;;;;;;5015278;28;20048;-81
2024/01/19 03:57:46;;;;;;;56.85;32.95;;;9.80;99.90;;;;;;5048482;28;20052;-80
2024/01/19 04:00:14;;;;;;;47.05;31.55;;;9.80;99.90;;;;;;5049540;28;20597;-79
2024/01/19 04:02:41;;;;;;;53.67;31.60;;;9.70;99.90;;;;;;5045998;28;20044;-79
2024/01/19 04:05:09;;;;;;;49.15;32.00;;;9.80;99.90;;;;;;5047821;28;20115;-80
2024/01/19 04:07:36;;;;;;;48.33;31.58;;;9.90;99.90;;;;;;5045306;28;20035;-78
2024/01/19 04:10:04;;;;;;;58.72;31.65;;;9.90;99.90;;;;;;5031463;28;20040;-79
2024/01/19 04:12:31;;;;;;;58.55;32.97;;;9.80;99.90;;;;;;5050812;28;20044;-79
2024/01/19 04:15:16;;;;;;;54.25;30.08;;;9.80;99.90;;;;;;5037543;28;20056;-81
2024/01/19 04:17:44;;;;;;;45.28;25.30;;;9.60;99.90;;;;;;5027396;28;20136;-80
2024/01/19 04:20:12;;;;;;;46.80;24.13;;;9.50;99.90;;;;;;5032439;28;20036;-82
2024/01/19 04:22:40;;;;;;;43.70;24.67;;;9.40;99.90;;;;;;5048348;28;20511;-83
2024/01/19 04:25:08;;;;;;;66.07;24.90;;;9.30;99.90;;;;;;5033324;28;20116;-83
2024/01/19 04:27:35;;;;;;;50.10;23.95;;;9.20;99.90;;;;;;5050909;28;20090;-80
2024/01/19 04:30:03;;;;;;;55.70;24.30;;;9.10;99.90;;;;;;5049432;28;20481;-81
2024/01/19 04:32:31;;;;;;;40.17;23.17;;;9.10;99.90;;;;;;5048627;28;20460;-82
2024/01/19 04:34:59;;;;;;;46.05;25.83;;;9.10;99.90;;;;;;5049759;28;20400;-80
2024/01/19 04:37:26;;;;;;;41.65;22.80;;;9.20;99.90;;;;;;5045726;28;20037;-80
2024/01/19 04:39:54;;;;;;;39.90;23.92;;;9.30;99.90;;;;;;5046897;28;20116;-79
2024/01/19 04:42:22;;;;;;;43.33;22.77;;;9.30;99.90;;;;;;5012723;28;20033;-79
2024/01/19 04:44:50;;;;;;;49.63;23.10;;;9.30;99.90;;;;;;5048089;28;20116;-80
2024/01/19 04:47:18;;;;;;;60.65;24.38;;;9.30;99.90;;;;;;5031838;28;20112;-82
2024/01/19 04:49:45;;;;;;;45.58;24.33;;;9.20;99.90;;;;;;5031191;28;20036;-81
2024/01/19 04:52:12;;;;;;;50.90;23.42;;;9.30;99.90;;;;;;5031808;28;20051;-78
2024/01/19 04:54:40;;;;;;;42.90;23.25;;;9.40;99.90;;;;;;5048966;28;20037;-79
2024/01/19 04:57:24;;;;;;;38.50;22.50;;;9.50;99.90;;;;;;5034500;28;20037;-79
2024/01/19 04:59:53;;;;;;;55.15;24.02;;;9.60;99.90;;;;;;5048699;28;20280;-80
2024/01/19 05:02:21;;;;;;;48.85;25.00;;;9.50;99.90;;;;;;5049531;28;20056;-80
2024/01/19 05:04:48;;;;;;;35.90;23.77;;;9.40;99.90;;;;;;5047126;28;20119;-81
2024/01/19 05:07:16;;;;;;;44.80;23.63;;;9.50;99.90;;;;;;5048606;28;20044;-78
2024/01/19 05:09:44;;;;;;;41.92;23.88;;;9.50;99.90;;;;;;5013592;28;20041;-79
2024/01/19 05:12:12;;;;;;;44.08;23.98;;;9.50;99.90;;;;;;5053075;28;20430;-80
2024/01/19 05:14:39;;;;;;;40.28;22.77;;;9.50;99.90;;;;;;5035851;28;20158;-82
2024/01/19 05:17:07;;;;;;;38.50;22.23;;;9.40;99.90;;;;;;5060578;28;20041;-81
2024/01/19 05:19:34;;;;;;;44.63;22.33;;;9.50;99.90;;;;;;5063828;28;20033;-81
2024/01/19 05:22:03;;;;;;;34.08;20.88;;;9.50;99.90;;;;;;5054246;28;20043;-82
2024/01/19 05:24:33;;;;;;;32.10;20.35;;;9.30;99.90;;;;;;5056100;28;20051;-81
2024/01/19 05:27:00;;;;;;;36.78;21.58;;;9.40;99.90;;;;;;5060755;28;20037;-82
2024/01/19 05:29:28;;;;;;;35.15;21.15;;;9.50;99.90;;;;;;5058544;28;20116;-85
2024/01/19 05:31:56;;;;;;;40.63;20.90;;;9.40;99.90;;;;;;5040577;28;20811;-82
2024/01/19 05:34:23;;;;;;;31.58;20.05;;;9.40;99.90;;;;;;5064565;28;20037;-81
2024/01/19 05:36:51;;;;;;;35.50;22.05;;;9.50;99.90;;;;;;5063430;28;20227;-81
2024/01/19 05:39:18;;;;;;;37.58;20.40;;;9.50;99.90;;;;;;5063658;28;20033;-79
2024/01/19 05:41:45;;;;;;;42.67;20.65;;;9.60;99.90;;;;;;5048342;28;20312;-84
2024/01/19 05:44:13;;;;;;;38.88;20.33;;;9.50;99.90;;;;;;5038315;28;20118;-82
2024/01/19 05:46:41;;;;;;;43.88;20.23;;;9.00;99.90;;;;;;5049674;28;20102;-81
2024/01/19 05:49:08;;;;;;;36.65;20.13;;;9.00;99.90;;;;;;5060795;28;20111;-82
2024/01/19 05:51:36;;;;;;;37.83;21.23;;;9.10;99.90;;;;;;5057496;28;20029;-81
2024/01/19 05:54:03;;;;;;;41.17;22.83;;;9.20;99.90;;;;;;5042416;28;20060;-83
2024/01/19 05:56:30;;;;;;;38.15;22.17;;;9.40;99.90;;;;;;5064548;28;20033;-81
2024/01/19 05:58:58;;;;;;;41.22;22.67;;;9.30;99.90;;;;;;5057581;28;20087;-80
2024/01/19 06:01:25;;;;;;;49.22;21.55;;;9.40;99.90;;;;;;5044497;28;20036;-79
2024/01/19 06:03:53;;;;;;;37.20;20.98;;;9.50;99.90;;;;;;5062635;28;20025;-79
2024/01/19 06:06:20;;;;;;;42.85;21.88;;;9.60;99.90;;;;;;5067114;28;20037;-84
2024/01/19 06:08:49;;;;;;;63.65;21.17;;;9.60;99.90;;;;;;5055043;28;20475;-80
2024/01/19 06:11:16;;;;;;;35.10;19.88;;;9.50;99.90;;;;;;5055875;28;20045;-82
2024/01/19 06:13:50;;;;;;;43.80;22.75;;;9.50;99.90;;;;;;5050463;28;20049;-80
2024/01/19 06:16:17;;;;;;;42.20;21.40;;;9.50;99.90;;;;;;5035030;28;20071;-81
2024/01/19 06:18:45;;;;;;;39.28;22.75;;;9.60;99.90;;;;;;5024595;28;20037;-80
2024/01/19 06:21:13;;;;;;;38.95;20.48;;;9.60;99.90;;;;;;5034505;28;20454;-80
2024/01/19 06:23:57;;;;;;;50.33;21.83;;;9.50;99.90;;;;;;5028147;28;20025;-80
2024/01/19 06:26:32;;;;;;;43.35;21.98;;;9.30;99.90;;;;;;5034574;28;20490;-83
2024/01/19 06:29:00;;;;;;;39.22;21.58;;;9.40;99.90;;;;;;5048845;28;20029;-83
2024/01/19 06:31:27;;;;;;;44.85;19.92;;;9.40;99.90;;;;;;5029505;28;20037;-82
2024/01/19 06:33:55;;;;;;;38.85;20.52;;;9.50;99.90;;;;;;5054126;28;20048;-81
2024/01/19 06:36:22;;;;;;;40.17;21.45;;;9.60;99.90;;;;;;5050794;28;20049;-82
2024/01/19 06:38:54;;;;;;;93.05;21.85;;;9.60;99.90;;;;;;5038895;28;20111;-82
2024/01/19 06:41:21;;;;;;;33.15;19.40;;;9.60;99.90;;;;;;5051728;28;20445;-79
2024/01/19 06:43:49;;;;;;;33.50;19.98;;;9.60;99.90;;;;;;5049902;28;20113;-81
2024/01/19 06:46:16;;;;;;;37.15;20.23;;;9.70;99.90;;;;;;5047824;28;20546;-80
2024/01/19 06:48:44;;;;;;;36.97;18.48;;;9.80;99.90;;;;;;5051385;28;20084;-81
2024/01/19 06:51:20;;;;;;;34.33;18.33;;;9.90;99.90;;;;;;5050589;28;20041;-82
2024/01/19 06:53:47;;;;;;;36.30;20.02;;;9.90;99.90;;;;;;5046745;28;20446;-81
2024/01/19 06:56:14;;;;;;;32.75;17.50;;;9.90;99.90;;;;;;5030712;28;20049;-81
2024/01/19 06:58:42;;;;;;;36.30;19.58;;;9.90;99.90;;;;;;5046674;28;20053;-80
2024/01/19 07:01:10;;;;;;;36.03;18.92;;;9.90;99.90;;;;;;5045504;28;20045;-80
2024/01/19 07:03:37;;;;;;;36.67;17.60;;;9.90;99.90;;;;;;5049116;28;20036;-79
2024/01/19 07:06:05;;;;;;;36.03;18.35;;;10.00;99.90;;;;;;5046809;28;20491;-80
2024/01/19 07:08:32;;;;;;;30.85;17.77;;;10.00;99.90;;;;;;5030552;28;20070;-81
2024/01/19 07:11:00;;;;;;;35.90;19.58;;;10.00;99.90;;;;;;5048216;28;20395;-83
2024/01/19 07:13:28;;;;;;;34.55;17.98;;;10.00;99.90;;;;;;5046690;28;20492;-82
2024/01/19 07:15:55;;;;;;;36.53;17.65;;;10.10;99.90;;;;;;5024104;28;20453;-82
2024/01/19 07:18:23;;;;;;;35.63;19.08;;;10.10;99.90;;;;;;5017341;28;20144;-79
2024/01/19 07:20:50;;;;;;;39.40;19.50;;;10.10;99.90;;;;;;5045381;28;20034;-81
2024/01/19 07:23:17;;;;;;;36.90;18.83;;;10.10;99.90;;;;;;5033798;28;20060;-78
2024/01/19 07:25:45;;;;;;;39.63;18.85;;;10.10;99.90;;;;;;5048984;28;20033;-79
2024/01/19 07:28:12;;;;;;;39.13;21.10;;;10.10;99.90;;;;;;5050605;28;20098;-82
2024/01/19 07:30:39;;;;;;;34.38;19.60;;;9.90;99.90;;;;;;5032951;28;20442;-83
2024/01/19 07:33:07;;;;;;;37.45;20.13;;;10.00;99.90;;;;;;5033197;28;20040;-79
2024/01/19 07:35:42;;;;;;;35.67;18.95;;;10.10;99.90;;;;;;5048164;28;20055;-80
2024/01/19 07:38:09;;;;;;;41.28;20.35;;;10.00;99.90;;;;;;5046807;28;20120;-79
2024/01/19 07:40:37;;;;;;;44.30;20.35;;;10.10;99.90;;;;;;5029608;28;20120;-80
2024/01/19 07:43:05;;;;;;;38.53;19.98;;;10.20;99.90;;;;;;5032086;28;20454;-80
2024/01/19 07:45:33;;;;;;;46.55;21.17;;;10.30;99.90;;;;;;5047338;28;20253;-88
2024/01/19 07:48:00;;;;;;;40.78;20.02;;;10.30;99.90;;;;;;5029184;28;20048;-78
2024/01/19 07:50:28;;;;;;;37.15;19.10;;;10.30;99.90;;;;;;5046215;28;20041;-83
2024/01/19 07:52:55;;;;;;;33.70;18.08;;;10.30;99.90;;;;;;5043361;28;20036;-77
2024/01/19 07:55:23;;;;;;;138.88;69.07;;;10.30;99.90;;;;;;5045621;28;20033;-81
2024/01/19 07:57:50;;;;;;;81.40;41.78;;;10.50;99.90;;;;;;5047704;28;20037;-79
2024/01/19 08:00:18;;;;;;;45.88;27.63;;;10.30;99.90;;;;;;5050198;28;20083;-79
2024/01/19 08:02:46;;;;;;;104.85;55.00;;;10.20;99.90;;;;;;5045445;28;20455;-79
2024/01/19 08:05:14;;;;;;;92.07;52.13;;;10.40;99.90;;;;;;5046889;28;20037;-79
2024/01/19 08:07:42;;;;;;;164.93;94.10;;;10.40;99.90;;;;;;5028808;28;20385;-82
2024/01/19 08:10:11;;;;;;;45.03;27.60;;;10.50;99.90;;;;;;5028503;28;20112;-79
2024/01/19 08:12:39;;;;;;;37.80;22.10;;;10.50;99.90;;;;;;5044479;28;20383;-80
2024/01/19 08:15:08;;;;;;;34.28;20.25;;;10.30;99.90;;;;;;5048712;28;20037;-79
2024/01/19 08:17:35;;;;;;;41.00;20.00;;;10.30;99.90;;;;;;5057619;28;20116;-83
2024/01/19 08:20:03;;;;;;;30.90;18.35;;;10.30;99.90;;;;;;5047880;28;20079;-82
2024/01/19 08:22:30;;;;;;;33.30;18.50;;;10.40;99.90;;;;;;5048162;28;20036;-83
2024/01/19 08:24:58;;;;;;;32.85;17.27;;;10.20;99.90;;;;;;5047285;28;20068;-78
2024/01/19 08:27:26;;;;;;;33.08;18.02;;;10.20;99.90;;;;;;5015993;28;20373;-81
2024/01/19 08:29:53;;;;;;;32.85;18.52;;;10.30;99.90;;;;;;5044729;28;20444;-80
2024/01/19 08:32:23;;;;;;;37.83;19.02;;;10.30;99.90;;;;;;5048671;28;20033;-79
2024/01/19 08:34:51;;;;;;;34.67;19.52;;;10.20;99.90;;;;;;5046297;28;20119;-80
2024/01/19 08:37:18;;;;;;;33.97;18.70;;;10.20;99.90;;;;;;5031199;28;20037;-78
2024/01/19 08:39:46;;;;;;;38.20;19.42;;;10.20;99.90;;;;;;5043244;28;20032;-82
2024/01/19 08:42:13;;;;;;;38.85;20.50;;;10.20;99.90;;;;;;5043392;28;20056;-80
2024/01/19 08:44:44;;;;;;;44.25;21.55;;;10.10;99.90;;;;;;5030950;28;20040;-78
2024/01/19 08:47:12;;;;;;;42.97;25.48;;;10.30;99.90;;;;;;5036545;28;20354;-79
2024/01/19 08:49:56;;;;;;;40.28;25.42;;;10.50;99.90;;;;;;5047054;28;20271;-79
2024/01/19 08:52:24;;;;;;;44.00;24.10;;;10.50;99.90;;;;;;5048727;28;20040;-80
2024/01/19 08:54:51;;;;;;;40.83;22.13;;;10.50;99.90;;;;;;5050400;28;20116;-84
2024/01/19 08:57:18;;;;;;;44.78;22.38;;;10.60;99.90;;;;;;5043856;28;20047;-79
2024/01/19 08:59:46;;;;;;;37.28;21.75;;;10.70;99.90;;;;;;5047175;28;20128;-80
2024/01/19 09:02:13;;;;;;;41.42;21.55;;;10.90;99.90;;;;;;5043992;28;20454;-79
2024/01/19 09:04:43;;;;;;;42.73;22.13;;;10.70;99.90;;;;;;5048106;28;20033;-80
2024/01/19 09:07:12;;;;;;;39.40;21.80;;;10.70;99.90;;;;;;5051197;28;20632;-80
2024/01/19 09:09:42;;;;;;;41.20;21.23;;;10.80;99.90;;;;;;5046037;28;20382;-81
2024/01/19 09:12:09;;;;;;;39.78;20.58;;;10.80;99.90;;;;;;5028127;28;20026;-80
2024/01/19 09:14:37;;;;;;;36.85;20.52;;;10.80;99.90;;;;;;5036708;28;20048;-82
2024/01/19 09:17:04;;;;;;;35.45;20.20;;;10.70;99.90;;;;;;5042588;28;20379;-81
2024/01/19 09:19:32;;;;;;;33.38;18.92;;;10.80;99.90;;;;;;5028349;28;20034;-80
2024/01/19 09:22:02;;;;;;;37.65;18.85;;;10.90;99.90;;;;;;5026141;28;20140;-81
2024/01/19 09:24:29;;;;;;;37.33;19.50;;;10.90;99.90;;;;;;5017240;28;20041;-81
2024/01/19 09:26:56;;;;;;;38.88;20.48;;;11.00;99.90;;;;;;5040315;28;20450;-81
2024/01/19 09:29:24;;;;;;;35.22;19.83;;;11.00;99.90;;;;;;5032592;28;20041;-83
2024/01/19 09:31:51;;;;;;;31.38;19.23;;;11.10;99.90;;;;;;5034617;28;20043;-82
2024/01/19 09:34:19;;;;;;;38.70;20.73;;;11.20;99.90;;;;;;5020536;28;20481;-80
2024/01/19 09:36:47;;;;;;;37.08;20.58;;;11.20;99.90;;;;;;5016991;28;20760;-80
2024/01/19 09:39:14;;;;;;;47.47;21.40;;;11.20;99.90;;;;;;5039950;28;20029;-77
2024/01/19 09:42:02;;;;;;;35.15;20.40;;;11.30;99.90;;;;;;5037237;28;20132;-79
2024/01/19 09:44:36;;;;;;;36.20;20.38;;;11.40;99.90;;;;;;5039019;28;20039;-77
2024/01/19 09:47:20;;;;;;;35.90;19.63;;;11.50;99.90;;;;;;5012202;28;20050;-80
2024/01/19 09:50:04;;;;;;;30.35;18.42;;;11.40;99.90;;;;;;5035955;28;20465;-78
2024/01/19 09:52:53;;;;;;;32.65;17.02;;;11.40;99.90;;;;;;5030315;28;20353;-79
2024/01/19 09:55:22;;;;;;;29.17;16.23;;;11.50;99.90;;;;;;5036472;28;20488;-81
2024/01/19 09:57:49;;;;;;;31.20;17.63;;;11.60;99.90;;;;;;5032883;28;20060;-79
2024/01/19 10:00:19;;;;;;;42.03;25.25;;;11.40;99.90;;;;;;4992034;28;20038;-80
2024/01/19 10:02:48;;;;;;;94.93;55.90;;;11.80;99.90;;;;;;5033308;28;20038;-79
2024/01/19 10:05:17;;;;;;;79.53;46.28;;;11.90;99.90;;;;;;5038247;28;20521;-83
2024/01/19 10:07:53;;;;;;;126.30;69.35;;;12.00;99.90;;;;;;5034151;28;20448;-79
2024/01/19 10:10:21;;;;;;;72.95;46.08;;;12.10;99.90;;;;;;5015745;28;20053;-82
2024/01/19 10:12:51;;;;;;;67.95;39.97;;;12.00;99.90;;;;;;5029825;28;20495;-81
2024/01/19 10:15:20;;;;;;;50.25;32.00;;;11.90;99.90;;;;;;5032729;28;20044;-80
2024/01/19 10:17:47;;;;;;;71.63;43.25;;;12.10;99.90;;;;;;5049936;28;20037;-80
2024/01/19 10:20:16;;;;;;;31.10;20.65;;;12.30;99.90;;;;;;5048834;28;20376;-79
2024/01/19 10:22:44;;;;;;;28.02;17.75;;;12.10;99.90;;;;;;5046916;28;20041;-78
2024/01/19 10:25:13;;;;;;;24.73;14.43;;;12.00;99.90;;;;;;5048193;28;20053;-80
2024/01/19 10:27:47;;;;;;;24.30;14.17;;;11.40;99.90;;;;;;5031416;28;20036;-78
2024/01/19 10:30:16;;;;;;;28.25;15.35;;;11.50;99.90;;;;;;5032896;28;20029;-75
2024/01/19 10:32:46;;;;;;;27.13;15.95;;;11.50;99.90;;;;;;5023206;28;20037;-74
2024/01/19 10:35:16;;;;;;;28.58;15.60;;;11.60;99.90;;;;;;5026784;28;20028;-80
2024/01/19 10:37:46;;;;;;;23.95;15.43;;;11.80;99.90;;;;;;5047402;28;20045;-79
2024/01/19 10:40:27;;;;;;;25.73;15.73;;;11.70;99.90;;;;;;5048741;28;20183;-78
2024/01/19 10:42:58;;;;;;;29.27;16.42;;;11.50;99.90;;;;;;5048910;28;20033;-76
2024/01/19 10:45:28;;;;;;;27.83;16.45;;;11.60;99.90;;;;;;5030703;28;20037;-80
2024/01/19 10:47:58;;;;;;;27.83;17.67;;;11.80;99.90;;;;;;5047358;28;20365;-81
2024/01/19 10:50:28;;;;;;;28.73;17.23;;;11.80;99.90;;;;;;5048227;28;20036;-81
2024/01/19 10:52:58;;;;;;;25.52;16.33;;;11.90;99.90;;;;;;5043561;28;20041;-79
2024/01/19 10:55:31;;;;;;;25.33;16.35;;;12.10;99.90;;;;;;5031933;28;20068;-79
2024/01/19 10:58:05;;;;;;;29.15;17.95;;;12.20;99.90;;;;;;5047458;28;20040;-80
2024/01/19 11:00:36;;;;;;;29.73;17.88;;;12.10;99.90;;;;;;5043262;28;20025;-79
2024/01/19 11:03:04;;;;;;;32.70;17.90;;;11.80;99.90;;;;;;5045326;28;20036;-79
2024/01/19 11:05:33;;;;;;;36.78;18.25;;;11.90;99.90;;;;;;5032769;28;20115;-79
2024/01/19 11:08:02;;;;;;;33.72;19.75;;;11.80;99.90;;;;;;5049992;28;20123;-80
2024/01/19 11:10:32;;;;;;;32.70;18.77;;;11.50;99.90;;;;;;5040027;28;20045;-76
2024/01/19 11:13:01;;;;;;;38.65;20.98;;;11.30;99.90;;;;;;5025091;28;20033;-79
2024/01/19 11:15:36;;;;;;;32.78;21.17;;;11.50;99.90;;;;;;5027586;28;20388;-79
2024/01/19 11:18:08;;;;;;;63.33;34.28;;;11.90;99.90;;;;;;5028896;28;20045;-80
2024/01/19 11:20:37;;;;;;;33.13;21.23;;;12.70;99.90;;;;;;5007567;28;20113;-75
2024/01/19 11:23:05;;;;;;;35.35;18.30;;;13.30;99.90;;;;;;5001963;28;20050;-77
2024/01/19 11:25:57;;;;;;;33.47;19.15;;;13.60;99.90;;;;;;5026387;28;20030;-77
2024/01/19 11:28:37;;;;;;;33.88;19.83;;;13.70;99.90;;;;;;5023924;28;20411;-77
2024/01/19 11:31:19;;;;;;;33.97;19.97;;;14.10;99.90;;;;;;5013563;28;20353;-77
2024/01/19 11:33:47;;;;;;;31.23;18.90;;;13.60;99.90;;;;;;5027464;28;20279;-79
2024/01/19 11:36:33;;;;;;;33.17;19.40;;;13.20;99.90;;;;;;5028960;28;20030;-78
2024/01/19 11:39:00;;;;;;;131.63;72.30;;;12.90;99.90;;;;;;5026801;28;20121;-76
2024/01/19 11:41:37;;;;;;;131.23;71.63;;;12.80;99.90;;;;;;5027659;28;20121;-78
2024/01/19 11:44:10;;;;;;;38.17;26.02;;;12.70;99.90;;;;;;5024594;28;20647;-74
2024/01/19 11:46:45;;;;;;;31.02;19.88;;;12.70;99.90;;;;;;5026960;28;20057;-75
2024/01/19 11:49:38;;;;;;;32.65;19.55;;;12.70;99.90;;;;;;5028569;28;20053;-80
2024/01/19 11:52:09;;;;;;;32.30;20.48;;;12.60;99.90;;;;;;5005787;28;20128;-74
2024/01/19 11:54:37;;;;;;;34.85;21.48;;;12.50;99.90;;;;;;5026357;28;20021;-77
2024/01/19 11:57:18;;;;;;;34.55;20.92;;;12.40;99.90;;;;;;5025304;28;20504;-75
2024/01/19 11:59:46;;;;;;;35.40;19.65;;;12.40;99.90;;;;;;5020790;28;20741;-75
2024/01/19 12:02:27;;;;;;;33.45;20.13;;;12.60;99.90;;;;;;5027033;28;20040;-77
2024/01/19 12:05:00;;;;;;;33.47;19.63;;;13.10;99.90;;;;;;5028191;28;20046;-75
2024/01/19 12:07:28;;;;;;;38.15;20.73;;;13.20;99.90;;;;;;5030152;28;20033;-81
2024/01/19 12:10:08;;;;;;;33.38;19.52;;;13.20;99.90;;;;;;5011548;28;20120;-75
2024/01/19 12:12:37;;;;;;;34.25;20.30;;;13.70;99.90;;;;;;5045147;28;20036;-76
2024/01/19 12:15:06;;;;;;;32.33;20.52;;;13.40;99.90;;;;;;5031280;28;20083;-77
2024/01/19 12:17:36;;;;;;;32.90;21.17;;;14.40;99.90;;;;;;5024751;28;20114;-76
2024/01/19 12:20:06;;;;;;;32.60;20.13;;;14.90;99.90;;;;;;5048235;28;20566;-73
2024/01/19 12:22:34;;;;;;;32.35;19.73;;;15.10;99.90;;;;;;5043675;28;20029;-75
2024/01/19 12:25:19;;;;;;;32.60;20.13;;;15.40;99.90;;;;;;5050590;28;20041;-76
2024/01/19 12:27:48;;;;;;;31.60;20.25;;;16.10;99.90;;;;;;5046480;28;20373;-76
2024/01/19 12:30:19;;;;;;;36.55;20.60;;;15.80;99.90;;;;;;5030906;28;20039;-75
2024/01/19 12:32:48;;;;;;;34.92;21.27;;;15.60;99.90;;;;;;5047682;28;20044;-78
2024/01/19 12:35:21;;;;;;;31.20;19.42;;;16.20;99.90;;;;;;5044472;28;20098;-73
2024/01/19 12:37:49;;;;;;;32.47;19.50;;;19.40;99.90;;;;;;5051529;28;20477;-78
2024/01/19 12:40:18;;;;;;;33.45;20.42;;;19.90;99.50;;;;;;5045743;28;20115;-77